Terminal Aerodrome Forecast
Issued by NWS

Home | Current Version | Previous Version | Text Only | Print | Product List | Glossary On
Versions: 1 2 3 4 5 6 7 8 9 10 11 12
653
FTUS46 KLOX 121145
TAFPRB
TAF
KPRB 121145Z 1212/1312 VRB03KT 6SM BR BKN250
     FM121600 34005KT P6SM BKN250
     FM122000 09008KT P6SM BKN200
     FM130500 VRB03KT P6SM BKN200
     FM130900 VRB03KT 5SM BR BKN200=

USA.gov is the U.S. government's official web portal to all federal, state and local government web resources and services.